^^

..:: Storico WU ::..




Lo storico viene creato da WUnderground con i dati che la stazione Meteomincio invia al loro server. L' aggiornamento viene fatto ogni 5 minuti circa, tuttavia possono esserci intervalli pi ampi a causa di errori, interruzioni di servizio o problemi nell' invio tramite FTP.


Storico stazione MeteoMincio
Giorno Sommario per Agosto 01, 2021 Unità:  Entrambi    Inglese   Metrico
Giorno Settimana Mese Anno
  Max: Min: Media:
Temperatura: 86 °F /  30.0 °C 68 °F /  20.0 °C 75.7 °F /  24.3 °C
Dew Point: 71.6 °F /  22.0 °C 59 °F /  15.0 °C 67.6 °F /  19.8 °C
Umidità: 91% 42% 77%
Velocità vento: 17.4mph /  28km/h - 5.5mph /  8.8km/h
Raffica: 25.5mph /  41km/h - -
Direzione- - SW
Pressione: 29.8 in /  1008.4 hPa 29.6 in /  1002.3 hPa -
Precipitazioni: 0 in /  0.00 mm    
 
 
Tabulato Dati per Agosto 01, 2021
Ora Temperatura Dew Point Pressione Direzione Velocità vento Raffica Umidità Intensità pioggia (oraria) Info solare Situazione
00:04 75.2 °F /  24.0 °C 69.8 °F /  21.0 °C 29.6in /  1003.7hPa East 2.5mph /  4km/h 5mph /  8km/h 80% 0in /  0.00mm 0.00 W/m2 unknown
00:09 75.2 °F /  24.0 °C 69.8 °F /  21.0 °C 29.6in /  1003.7hPa East 3.1mph /  5km/h 5mph /  8km/h 80% 0in /  0.00mm 0.00 W/m2 unknown
00:14 75.2 °F /  24.0 °C 69.8 °F /  21.0 °C 29.6in /  1003.7hPa East 3.7mph /  6km/h 6.2mph /  10km/h 80% 0in /  0.00mm 0.00 W/m2 unknown
00:19 75.2 °F /  24.0 °C 69.8 °F /  21.0 °C 29.6in /  1003.8hPa East 4.3mph /  7km/h 6.2mph /  10km/h 80% 0in /  0.00mm 0.00 W/m2 unknown
00:24 75.2 °F /  24.0 °C 69.8 °F /  21.0 °C 29.6in /  1003.9hPa East 4.3mph /  7km/h 6.2mph /  10km/h 80% 0in /  0.00mm 0.00 W/m2 unknown
00:29 75.2 °F /  24.0 °C 69.8 °F /  21.0 °C 29.6in /  1003.9hPa East 1.2mph /  2km/h 6.2mph /  10km/h 80% 0in /  0.00mm 0.00 W/m2 unknown
00:34 75.2 °F /  24.0 °C 69.8 °F /  21.0 °C 29.7in /  1004.1hPa ESE 1.2mph /  2km/h 2.5mph /  4km/h 80% 0in /  0.00mm 0.00 W/m2 unknown
00:39 75.2 °F /  24.0 °C 69.8 °F /  21.0 °C 29.7in /  1004.2hPa WSW 3.7mph /  6km/h 3.7mph /  6km/h 80% 0in /  0.00mm 0.00 W/m2 unknown
00:44 75.2 °F /  24.0 °C 69.8 °F /  21.0 °C 29.7in /  1004.3hPa West 3.7mph /  6km/h 3.7mph /  6km/h 81% 0in /  0.00mm 0.00 W/m2 unknown
00:49 75.2 °F /  24.0 °C 69.8 °F /  21.0 °C 29.7in /  1004.3hPa WNW 1.9mph /  3km/h 3.1mph /  5km/h 81% 0in /  0.00mm 0.00 W/m2 unknown
00:54 75.2 °F /  24.0 °C 69.8 °F /  21.0 °C 29.7in /  1004.4hPa WNW 2.5mph /  4km/h 3.7mph /  6km/h 81% 0in /  0.00mm 0.00 W/m2 unknown
00:59 75.2 °F /  24.0 °C 69.8 °F /  21.0 °C 29.7in /  1004.5hPa West 1.2mph /  2km/h 3.1mph /  5km/h 81% 0in /  0.00mm 0.00 W/m2 unknown
01:04 75.2 °F /  24.0 °C 69.8 °F /  21.0 °C 29.7in /  1004.7hPa West 1.2mph /  2km/h 2.5mph /  4km/h 81% 0in /  0.00mm 0.00 W/m2 unknown
01:09 75.2 °F /  24.0 °C 69.8 °F /  21.0 °C 29.7in /  1004.7hPa NW 1.9mph /  3km/h 3.7mph /  6km/h 82% 0in /  0.00mm 0.00 W/m2 unknown
01:14 75.2 °F /  24.0 °C 69.8 °F /  21.0 °C 29.7in /  1004.7hPa Calm   3.1mph /  5km/h 82% 0in /  0.00mm 0.00 W/m2 unknown
01:19 75.2 °F /  24.0 °C 69.8 °F /  21.0 °C 29.7in /  1004.7hPa NW 1.2mph /  2km/h 2.5mph /  4km/h 82% 0in /  0.00mm 0.00 W/m2 unknown
01:24 75.2 °F /  24.0 °C 69.8 °F /  21.0 °C 29.7in /  1004.7hPa NW 1.9mph /  3km/h 2.5mph /  4km/h 82% 0in /  0.00mm 0.00 W/m2 unknown
01:29 75.2 °F /  24.0 °C 69.8 °F /  21.0 °C 29.7in /  1004.5hPa NNW 1.2mph /  2km/h 2.5mph /  4km/h 82% 0in /  0.00mm 0.00 W/m2 unknown
01:34 75.2 °F /  24.0 °C 69.8 °F /  21.0 °C 29.7in /  1004.3hPa NNW 1.2mph /  2km/h 2.5mph /  4km/h 82% 0in /  0.00mm 0.00 W/m2 unknown
01:39 75.2 °F /  24.0 °C 69.8 °F /  21.0 °C 29.7in /  1004.3hPa WNW 1.9mph /  3km/h 2.5mph /  4km/h 82% 0in /  0.00mm 0.00 W/m2 unknown
01:44 75.2 °F /  24.0 °C 69.8 °F /  21.0 °C 29.7in /  1004.4hPa WNW 1.9mph /  3km/h 3.1mph /  5km/h 82% 0in /  0.00mm 0.00 W/m2 unknown
01:49 75.2 °F /  24.0 °C 69.8 °F /  21.0 °C 29.7in /  1004.5hPa West 3.1mph /  5km/h 3.7mph /  6km/h 83% 0in /  0.00mm 0.00 W/m2 unknown
01:54 75.2 °F /  24.0 °C 69.8 °F /  21.0 °C 29.7in /  1004.6hPa WNW 3.1mph /  5km/h 3.7mph /  6km/h 83% 0in /  0.00mm 0.00 W/m2 unknown
01:59 75.2 °F /  24.0 °C 69.8 °F /  21.0 °C 29.7in /  1004.7hPa NW 1.9mph /  3km/h 3.7mph /  6km/h 83% 0in /  0.00mm 0.00 W/m2 unknown
02:04 75.2 °F /  24.0 °C 69.8 °F /  21.0 °C 29.7in /  1004.7hPa NW 1.9mph /  3km/h 3.7mph /  6km/h 83% 0in /  0.00mm 0.00 W/m2 unknown
02:09 75.2 °F /  24.0 °C 69.8 °F /  21.0 °C 29.7in /  1004.6hPa NNW 2.5mph /  4km/h 3.7mph /  6km/h 83% 0in /  0.00mm 0.00 W/m2 unknown
02:14 75.2 °F /  24.0 °C 69.8 °F /  21.0 °C 29.7in /  1004.6hPa NNW 2.5mph /  4km/h 3.7mph /  6km/h 83% 0in /  0.00mm 0.00 W/m2 unknown
02:19 75.2 °F /  24.0 °C 69.8 °F /  21.0 °C 29.7in /  1004.5hPa NNW 1.9mph /  3km/h 3.7mph /  6km/h 83% 0in /  0.00mm 0.00 W/m2 unknown
02:24 75.2 °F /  24.0 °C 69.8 °F /  21.0 °C 29.7in /  1004.4hPa NNW 1.9mph /  3km/h 3.1mph /  5km/h 83% 0in /  0.00mm 0.00 W/m2 unknown
02:29 75.2 °F /  24.0 °C 69.8 °F /  21.0 °C 29.7in /  1004.5hPa NNW 1.2mph /  2km/h 2.5mph /  4km/h 83% 0in /  0.00mm 0.00 W/m2 unknown
02:34 75.2 °F /  24.0 °C 69.8 °F /  21.0 °C 29.7in /  1004.5hPa NNW 0.6mph /  1km/h 1.9mph /  3km/h 83% 0in /  0.00mm 0.00 W/m2 unknown
02:39 75.2 °F /  24.0 °C 69.8 °F /  21.0 °C 29.7in /  1004.4hPa North 1.2mph /  2km/h 2.5mph /  4km/h 83% 0in /  0.00mm 0.00 W/m2 unknown
02:44 75.2 °F /  24.0 °C 69.8 °F /  21.0 °C 29.7in /  1004.2hPa NNW 2.5mph /  4km/h 3.7mph /  6km/h 83% 0in /  0.00mm 0.00 W/m2 unknown
02:49 75.2 °F /  24.0 °C 69.8 °F /  21.0 °C 29.7in /  1004.3hPa NW 2.5mph /  4km/h 3.7mph /  6km/h 83% 0in /  0.00mm 0.00 W/m2 unknown
02:54 75.2 °F /  24.0 °C 69.8 °F /  21.0 °C 29.7in /  1004.3hPa NW 1.9mph /  3km/h 5mph /  8km/h 83% 0in /  0.00mm 0.00 W/m2 unknown
02:59 75.2 °F /  24.0 °C 69.8 °F /  21.0 °C 29.7in /  1004.3hPa NW 3.7mph /  6km/h 6.2mph /  10km/h 84% 0in /  0.00mm 0.00 W/m2 unknown
03:04 75.2 °F /  24.0 °C 69.8 °F /  21.0 °C 29.7in /  1004.3hPa North 4.3mph /  7km/h 6.2mph /  10km/h 84% 0in /  0.00mm 0.00 W/m2 unknown
03:09 75.2 °F /  24.0 °C 69.8 °F /  21.0 °C 29.7in /  1004.1hPa NNW 1.2mph /  2km/h 6.2mph /  10km/h 83% 0in /  0.00mm 0.00 W/m2 unknown
03:14 75.2 °F /  24.0 °C 69.8 °F /  21.0 °C 29.7in /  1004.0hPa North 0.6mph /  1km/h 1.9mph /  3km/h 83% 0in /  0.00mm 0.00 W/m2 unknown
03:19 75.2 °F /  24.0 °C 69.8 °F /  21.0 °C 29.6in /  1003.8hPa North 0.6mph /  1km/h 1.2mph /  2km/h 83% 0in /  0.00mm 0.00 W/m2 unknown
03:24 75.2 °F /  24.0 °C 69.8 °F /  21.0 °C 29.7in /  1004.0hPa SW 2.5mph /  4km/h 3.7mph /  6km/h 83% 0in /  0.00mm 0.00 W/m2 unknown
03:29 75.2 °F /  24.0 °C 69.8 °F /  21.0 °C 29.7in /  1004.2hPa WSW 4.3mph /  7km/h 5mph /  8km/h 84% 0in /  0.00mm 0.00 W/m2 unknown
03:34 75.2 °F /  24.0 °C 69.8 °F /  21.0 °C 29.7in /  1004.3hPa WNW 5.6mph /  9km/h 8.1mph /  13km/h 84% 0in /  0.00mm 0.00 W/m2 unknown
03:39 75.2 °F /  24.0 °C 69.8 °F /  21.0 °C 29.7in /  1004.3hPa West 6.2mph /  10km/h 8.1mph /  13km/h 84% 0in /  0.00mm 0.00 W/m2 unknown
03:44 73.4 °F /  23.0 °C 69.8 °F /  21.0 °C 29.7in /  1004.1hPa SW 3.1mph /  5km/h 8.1mph /  13km/h 85% 0in /  0.00mm 0.00 W/m2 unknown
03:49 73.4 °F /  23.0 °C 69.8 °F /  21.0 °C 29.7in /  1004.0hPa SW 2.5mph /  4km/h 3.7mph /  6km/h 85% 0in /  0.00mm 0.00 W/m2 unknown
03:54 73.4 °F /  23.0 °C 69.8 °F /  21.0 °C 29.6in /  1003.9hPa SW 3.1mph /  5km/h 5mph /  8km/h 85% 0in /  0.00mm 0.00 W/m2 unknown
03:59 73.4 °F /  23.0 °C 69.8 °F /  21.0 °C 29.7in /  1004.2hPa SSW 5mph /  8km/h 6.2mph /  10km/h 86% 0in /  0.00mm 0.00 W/m2 unknown
04:04 73.4 °F /  23.0 °C 69.8 °F /  21.0 °C 29.7in /  1004.2hPa SSW 5mph /  8km/h 6.2mph /  10km/h 87% 0in /  0.00mm 0.00 W/m2 unknown
04:09 73.4 °F /  23.0 °C 69.8 °F /  21.0 °C 29.7in /  1004.2hPa SW 3.1mph /  5km/h 6.2mph /  10km/h 87% 0in /  0.00mm 0.00 W/m2 unknown
04:14 73.4 °F /  23.0 °C 69.8 °F /  21.0 °C 29.6in /  1003.9hPa WSW 3.1mph /  5km/h 3.7mph /  6km/h 87% 0in /  0.00mm 0.00 W/m2 unknown
04:19 73.4 °F /  23.0 °C 69.8 °F /  21.0 °C 29.6in /  1003.6hPa West 6.8mph /  11km/h 10.6mph /  17km/h 87% 0in /  0.00mm 0.00 W/m2 unknown
04:24 73.4 °F /  23.0 °C 68 °F /  20.0 °C 29.6in /  1003.6hPa West 6.8mph /  11km/h 9.9mph /  16km/h 87% 0in /  0.00mm 0.00 W/m2 unknown
04:29 73.4 °F /  23.0 °C 68 °F /  20.0 °C 29.6in /  1003.4hPa West 3.1mph /  5km/h 8.1mph /  13km/h 87% 0in /  0.00mm 0.00 W/m2 unknown
04:34 73.4 °F /  23.0 °C 68 °F /  20.0 °C 29.7in /  1004.1hPa WSW 9.3mph /  15km/h 11.8mph /  19km/h 87% 0in /  0.00mm 0.00 W/m2 unknown
04:39 71.6 °F /  22.0 °C 68 °F /  20.0 °C 29.7in /  1004.0hPa WSW 9.3mph /  15km/h 11.8mph /  19km/h 87% 0in /  0.00mm 0.00 W/m2 unknown
04:44 71.6 °F /  22.0 °C 68 °F /  20.0 °C 29.6in /  1003.3hPa East 5mph /  8km/h 11.8mph /  19km/h 87% 0in /  0.00mm 0.00 W/m2 unknown
04:49 71.6 °F /  22.0 °C 68 °F /  20.0 °C 29.6in /  1003.3hPa West 5mph /  8km/h 6.2mph /  10km/h 87% 0in /  0.00mm 0.00 W/m2 unknown
04:54 71.6 °F /  22.0 °C 68 °F /  20.0 °C 29.6in /  1003.3hPa WSW 3.7mph /  6km/h 6.2mph /  10km/h 88% 0in /  0.00mm 0.00 W/m2 unknown
04:59 71.6 °F /  22.0 °C 68 °F /  20.0 °C 29.6in /  1003.2hPa West 3.1mph /  5km/h 5mph /  8km/h 88% 0in /  0.00mm 0.00 W/m2 unknown
05:04 71.6 °F /  22.0 °C 68 °F /  20.0 °C 29.6in /  1003.6hPa WSW 4.3mph /  7km/h 6.2mph /  10km/h 88% 0in /  0.00mm 0.00 W/m2 unknown
05:09 69.8 °F /  21.0 °C 66.2 °F /  19.0 °C 29.6in /  1003.6hPa WSW 5mph /  8km/h 6.2mph /  10km/h 88% 0in /  0.00mm 0.00 W/m2 unknown
05:14 69.8 °F /  21.0 °C 66.2 °F /  19.0 °C 29.6in /  1003.7hPa SW 5mph /  8km/h 6.8mph /  11km/h 88% 0in /  0.00mm 0.00 W/m2 unknown
05:19 69.8 °F /  21.0 °C 66.2 °F /  19.0 °C 29.6in /  1003.8hPa SSW 4.3mph /  7km/h 6.8mph /  11km/h 88% 0in /  0.00mm 0.00 W/m2 unknown
05:24 69.8 °F /  21.0 °C 66.2 °F /  19.0 °C 29.6in /  1003.9hPa SW 5.6mph /  9km/h 8.1mph /  13km/h 88% 0in /  0.00mm 0.00 W/m2 unknown
05:29 69.8 °F /  21.0 °C 66.2 °F /  19.0 °C 29.6in /  1003.9hPa SW 5mph /  8km/h 8.1mph /  13km/h 89% 0in /  0.00mm 0.00 W/m2 unknown
05:34 69.8 °F /  21.0 °C 66.2 °F /  19.0 °C 29.6in /  1003.8hPa WSW 5mph /  8km/h 6.8mph /  11km/h 89% 0in /  0.00mm 0.00 W/m2 unknown
05:39 69.8 °F /  21.0 °C 66.2 °F /  19.0 °C 29.6in /  1003.7hPa WSW 5mph /  8km/h 6.2mph /  10km/h 89% 0in /  0.00mm 0.00 W/m2 unknown
05:44 69.8 °F /  21.0 °C 66.2 °F /  19.0 °C 29.6in /  1003.6hPa West 3.1mph /  5km/h 5mph /  8km/h 88% 0in /  0.00mm 0.00 W/m2 unknown
05:49 69.8 °F /  21.0 °C 66.2 °F /  19.0 °C 29.6in /  1003.5hPa West 5mph /  8km/h 6.2mph /  10km/h 88% 0in /  0.00mm 0.00 W/m2 unknown
05:54 69.8 °F /  21.0 °C 66.2 °F /  19.0 °C 29.6in /  1003.4hPa West 5mph /  8km/h 6.2mph /  10km/h 89% 0in /  0.00mm 0.00 W/m2 unknown
05:59 69.8 °F /  21.0 °C 66.2 °F /  19.0 °C 29.6in /  1003.5hPa WSW 3.1mph /  5km/h 6.2mph /  10km/h 89% 0in /  0.00mm 0.00 W/m2 unknown
06:04 68 °F /  20.0 °C 64.4 °F /  18.0 °C 29.6in /  1003.3hPa WSW 3.1mph /  5km/h 3.7mph /  6km/h 88% 0in /  0.00mm 0.00 W/m2 unknown
06:09 68 °F /  20.0 °C 64.4 °F /  18.0 °C 29.6in /  1003.2hPa West 3.1mph /  5km/h 3.7mph /  6km/h 89% 0in /  0.00mm 0.00 W/m2 unknown
06:14 68 °F /  20.0 °C 64.4 °F /  18.0 °C 29.6in /  1002.9hPa WNW 2.5mph /  4km/h 3.7mph /  6km/h 89% 0in /  0.00mm 5.00 W/m2 unknown
06:19 68 °F /  20.0 °C 64.4 °F /  18.0 °C 29.6in /  1002.7hPa WNW 2.5mph /  4km/h 3.7mph /  6km/h 89% 0in /  0.00mm 7.00 W/m2 unknown
06:24 68 °F /  20.0 °C 64.4 °F /  18.0 °C 29.6in /  1002.6hPa West 1.9mph /  3km/h 3.7mph /  6km/h 89% 0in /  0.00mm 11.00 W/m2 unknown
06:29 68 °F /  20.0 °C 64.4 °F /  18.0 °C 29.6in /  1002.7hPa West 1.9mph /  3km/h 3.1mph /  5km/h 89% 0in /  0.00mm 12.00 W/m2 unknown
06:34 68 °F /  20.0 °C 64.4 °F /  18.0 °C 29.6in /  1002.8hPa WSW 1.9mph /  3km/h 2.5mph /  4km/h 89% 0in /  0.00mm 16.00 W/m2 unknown
06:39 68 °F /  20.0 °C 64.4 °F /  18.0 °C 29.6in /  1002.7hPa WSW 1.9mph /  3km/h 2.5mph /  4km/h 89% 0in /  0.00mm 23.00 W/m2 unknown
06:44 68 °F /  20.0 °C 64.4 °F /  18.0 °C 29.6in /  1002.6hPa SE 2.5mph /  4km/h 3.7mph /  6km/h 89% 0in /  0.00mm 30.00 W/m2 unknown
06:49 68 °F /  20.0 °C 66.2 °F /  19.0 °C 29.6in /  1002.7hPa SSE 3.1mph /  5km/h 3.7mph /  6km/h 90% 0in /  0.00mm 35.00 W/m2 unknown
06:54 68 °F /  20.0 °C 66.2 °F /  19.0 °C 29.6in /  1002.7hPa SE 1.2mph /  2km/h 3.1mph /  5km/h 90% 0in /  0.00mm 40.00 W/m2 unknown
06:59 68 °F /  20.0 °C 66.2 °F /  19.0 °C 29.6in /  1002.6hPa SE 1.2mph /  2km/h 2.5mph /  4km/h 90% 0in /  0.00mm 44.00 W/m2 unknown
07:04 68 °F /  20.0 °C 66.2 °F /  19.0 °C 29.6in /  1002.4hPa Calm   1.9mph /  3km/h 90% 0in /  0.00mm 44.00 W/m2 unknown
07:09 68 °F /  20.0 °C 66.2 °F /  19.0 °C 29.6in /  1002.4hPa WSW 1.2mph /  2km/h 3.1mph /  5km/h 90% 0in /  0.00mm 44.00 W/m2 unknown
07:14 69.8 °F /  21.0 °C 66.2 °F /  19.0 °C 29.6in /  1002.3hPa NNW 1.9mph /  3km/h 3.7mph /  6km/h 90% 0in /  0.00mm 70.00 W/m2 unknown
07:19 69.8 °F /  21.0 °C 66.2 °F /  19.0 °C 29.6in /  1002.5hPa NNW 0.6mph /  1km/h 3.1mph /  5km/h 90% 0in /  0.00mm 83.00 W/m2 unknown
07:24 69.8 °F /  21.0 °C 66.2 °F /  19.0 °C 29.6in /  1002.6hPa NNW 0.6mph /  1km/h 2.5mph /  4km/h 90% 0in /  0.00mm 98.00 W/m2 unknown
07:29 69.8 °F /  21.0 °C 66.2 °F /  19.0 °C 29.6in /  1002.7hPa ESE 2.5mph /  4km/h 3.7mph /  6km/h 90% 0in /  0.00mm 113.00 W/m2 unknown
07:34 69.8 °F /  21.0 °C 66.2 °F /  19.0 °C 29.6in /  1002.8hPa SE 2.5mph /  4km/h 3.7mph /  6km/h 90% 0in /  0.00mm 123.00 W/m2 unknown
07:39 69.8 °F /  21.0 °C 66.2 °F /  19.0 °C 29.6in /  1003.1hPa South 3.7mph /  6km/h 5mph /  8km/h 89% 0in /  0.00mm 144.00 W/m2 unknown
07:44 69.8 °F /  21.0 °C 66.2 °F /  19.0 °C 29.6in /  1003.1hPa South 5mph /  8km/h 6.2mph /  10km/h 89% 0in /  0.00mm 174.00 W/m2 unknown
07:49 71.6 °F /  22.0 °C 68 °F /  20.0 °C 29.6in /  1003.2hPa SSW 5mph /  8km/h 6.2mph /  10km/h 88% 0in /  0.00mm 174.00 W/m2 unknown
07:54 71.6 °F /  22.0 °C 68 °F /  20.0 °C 29.6in /  1003.1hPa SW 3.7mph /  6km/h 6.2mph /  10km/h 88% 0in /  0.00mm 225.00 W/m2 unknown
07:59 71.6 °F /  22.0 °C 68 °F /  20.0 °C 29.6in /  1003.0hPa SW 2.5mph /  4km/h 5mph /  8km/h 88% 0in /  0.00mm 241.00 W/m2 unknown
08:04 71.6 °F /  22.0 °C 68 °F /  20.0 °C 29.6in /  1003.0hPa West 1.9mph /  3km/h 3.7mph /  6km/h 87% 0in /  0.00mm 232.00 W/m2 unknown
08:09 71.6 °F /  22.0 °C 68 °F /  20.0 °C 29.6in /  1002.9hPa West 1.2mph /  2km/h 3.1mph /  5km/h 87% 0in /  0.00mm 214.00 W/m2 unknown
08:14 73.4 °F /  23.0 °C 68 °F /  20.0 °C 29.6in /  1003.0hPa SSW 3.1mph /  5km/h 3.7mph /  6km/h 86% 0in /  0.00mm 309.00 W/m2 unknown
08:19 73.4 °F /  23.0 °C 68 °F /  20.0 °C 29.6in /  1003.0hPa SSE 4.3mph /  7km/h 5mph /  8km/h 86% 0in /  0.00mm 309.00 W/m2 unknown
08:24 73.4 °F /  23.0 °C 69.8 °F /  21.0 °C 29.6in /  1003.0hPa East 3.7mph /  6km/h 4.3mph /  7km/h 85% 0in /  0.00mm 302.00 W/m2 unknown
08:29 73.4 °F /  23.0 °C 69.8 °F /  21.0 °C 29.6in /  1003.1hPa SSW 3.7mph /  6km/h 6.2mph /  10km/h 85% 0in /  0.00mm 343.00 W/m2 unknown
08:34 75.2 °F /  24.0 °C 69.8 °F /  21.0 °C 29.6in /  1003.1hPa South 3.7mph /  6km/h 6.2mph /  10km/h 84% 0in /  0.00mm 343.00 W/m2 unknown
08:39 75.2 °F /  24.0 °C 69.8 °F /  21.0 °C 29.6in /  1003.1hPa South 4.3mph /  7km/h 6.2mph /  10km/h 84% 0in /  0.00mm 427.00 W/m2 unknown
08:44 75.2 °F /  24.0 °C 69.8 °F /  21.0 °C 29.6in /  1003.2hPa SSW 4.3mph /  7km/h 6.2mph /  10km/h 84% 0in /  0.00mm 401.00 W/m2 unknown
08:49 75.2 °F /  24.0 °C 69.8 °F /  21.0 °C 29.6in /  1003.1hPa SW 5.6mph /  9km/h 6.8mph /  11km/h 83% 0in /  0.00mm 396.00 W/m2 unknown
08:54 75.2 °F /  24.0 °C 69.8 °F /  21.0 °C 29.6in /  1003.1hPa WSW 5.6mph /  9km/h 8.1mph /  13km/h 82% 0in /  0.00mm 360.00 W/m2 unknown
08:59 77 °F /  25.0 °C 69.8 °F /  21.0 °C 29.6in /  1003.1hPa WSW 6.2mph /  10km/h 8.1mph /  13km/h 81% 0in /  0.00mm 388.00 W/m2 unknown
09:04 77 °F /  25.0 °C 69.8 °F /  21.0 °C 29.6in /  1003.2hPa West 6.2mph /  10km/h 8.1mph /  13km/h 81% 0in /  0.00mm 411.00 W/m2 unknown
09:09 77 °F /  25.0 °C 69.8 °F /  21.0 °C 29.6in /  1003.3hPa SW 4.3mph /  7km/h 6.2mph /  10km/h 81% 0in /  0.00mm 244.00 W/m2 unknown
09:14 77 °F /  25.0 °C 69.8 °F /  21.0 °C 29.6in /  1003.4hPa West 5.6mph /  9km/h 6.8mph /  11km/h 81% 0in /  0.00mm 193.00 W/m2 unknown
09:19 75.2 °F /  24.0 °C 69.8 °F /  21.0 °C 29.6in /  1003.4hPa West 5mph /  8km/h 6.8mph /  11km/h 81% 0in /  0.00mm 431.00 W/m2 unknown
09:24 77 °F /  25.0 °C 69.8 °F /  21.0 °C 29.6in /  1003.4hPa West 4.3mph /  7km/h 6.2mph /  10km/h 81% 0in /  0.00mm 431.00 W/m2 unknown
09:29 77 °F /  25.0 °C 69.8 °F /  21.0 °C 29.6in /  1003.3hPa West 5.6mph /  9km/h 6.8mph /  11km/h 81% 0in /  0.00mm 425.00 W/m2 unknown
09:34 77 °F /  25.0 °C 69.8 °F /  21.0 °C 29.6in /  1003.4hPa WSW 5mph /  8km/h 6.8mph /  11km/h 80% 0in /  0.00mm 461.00 W/m2 unknown
09:39 77 °F /  25.0 °C 69.8 °F /  21.0 °C 29.6in /  1003.4hPa WSW 3.7mph /  6km/h 5mph /  8km/h 80% 0in /  0.00mm 461.00 W/m2 unknown
09:44 77 °F /  25.0 °C 69.8 °F /  21.0 °C 29.6in /  1003.4hPa WSW 4.3mph /  7km/h 6.2mph /  10km/h 79% 0in /  0.00mm 476.00 W/m2 unknown
09:49 78.8 °F /  26.0 °C 69.8 °F /  21.0 °C 29.6in /  1003.4hPa West 5mph /  8km/h 6.2mph /  10km/h 79% 0in /  0.00mm 485.00 W/m2 unknown
09:54 78.8 °F /  26.0 °C 69.8 °F /  21.0 °C 29.6in /  1003.3hPa WSW 4.3mph /  7km/h 6.2mph /  10km/h 78% 0in /  0.00mm 512.00 W/m2 unknown
09:59 78.8 °F /  26.0 °C 69.8 °F /  21.0 °C 29.6in /  1003.3hPa SSW 3.1mph /  5km/h 5mph /  8km/h 78% 0in /  0.00mm 548.00 W/m2 unknown
10:04 78.8 °F /  26.0 °C 69.8 °F /  21.0 °C 29.6in /  1003.3hPa WSW 4.3mph /  7km/h 6.2mph /  10km/h 78% 0in /  0.00mm 564.00 W/m2 unknown
10:09 78.8 °F /  26.0 °C 69.8 °F /  21.0 °C 29.6in /  1003.3hPa WSW 5mph /  8km/h 6.2mph /  10km/h 77% 0in /  0.00mm 580.00 W/m2 unknown
10:14 78.8 °F /  26.0 °C 71.6 °F /  22.0 °C 29.6in /  1003.5hPa SW 5mph /  8km/h 6.2mph /  10km/h 77% 0in /  0.00mm 635.00 W/m2 unknown
10:19 78.8 °F /  26.0 °C 71.6 °F /  22.0 °C 29.6in /  1003.6hPa SW 4.3mph /  7km/h 6.2mph /  10km/h 76% 0in /  0.00mm 635.00 W/m2 unknown
10:24 78.8 °F /  26.0 °C 71.6 °F /  22.0 °C 29.6in /  1003.6hPa SW 5.6mph /  9km/h 6.8mph /  11km/h 76% 0in /  0.00mm 392.00 W/m2 unknown
10:29 78.8 °F /  26.0 °C 69.8 °F /  21.0 °C 29.6in /  1003.6hPa SSW 6.2mph /  10km/h 6.8mph /  11km/h 75% 0in /  0.00mm 288.00 W/m2 unknown
10:34 78.8 °F /  26.0 °C 71.6 °F /  22.0 °C 29.6in /  1003.6hPa SSW 6.8mph /  11km/h 9.3mph /  15km/h 75% 0in /  0.00mm 346.00 W/m2 unknown
10:39 80.6 °F /  27.0 °C 71.6 °F /  22.0 °C 29.6in /  1003.6hPa SSW 6.8mph /  11km/h 11.8mph /  19km/h 74% 0in /  0.00mm 464.00 W/m2 unknown
10:44 80.6 °F /  27.0 °C 71.6 °F /  22.0 °C 29.6in /  1003.5hPa SSW 6.8mph /  11km/h 11.8mph /  19km/h 74% 0in /  0.00mm 612.00 W/m2 unknown
10:49 80.6 °F /  27.0 °C 71.6 °F /  22.0 °C 29.6in /  1003.6hPa SW 6.8mph /  11km/h 9.9mph /  16km/h 74% 0in /  0.00mm 434.00 W/m2 unknown
10:54 80.6 °F /  27.0 °C 71.6 °F /  22.0 °C 29.6in /  1003.6hPa SSW 8.1mph /  13km/h 11.8mph /  19km/h 74% 0in /  0.00mm 432.00 W/m2 unknown
10:59 80.6 °F /  27.0 °C 71.6 °F /  22.0 °C 29.6in /  1003.6hPa SW 7.5mph /  12km/h 11.8mph /  19km/h 72% 0in /  0.00mm 747.00 W/m2 unknown
11:04 80.6 °F /  27.0 °C 71.6 °F /  22.0 °C 29.6in /  1003.7hPa SW 9.3mph /  15km/h 13mph /  21km/h 72% 0in /  0.00mm 747.00 W/m2 unknown
11:09 80.6 °F /  27.0 °C 69.8 °F /  21.0 °C 29.6in /  1003.6hPa SSW 8.7mph /  14km/h 13mph /  21km/h 71% 0in /  0.00mm 629.00 W/m2 unknown
11:14 80.6 °F /  27.0 °C 69.8 °F /  21.0 °C 29.6in /  1003.6hPa SSW 8.7mph /  14km/h 11.8mph /  19km/h 72% 0in /  0.00mm 229.00 W/m2 unknown
11:19 80.6 °F /  27.0 °C 69.8 °F /  21.0 °C 29.6in /  1003.5hPa SSW 8.7mph /  14km/h 13mph /  21km/h 73% 0in /  0.00mm 369.00 W/m2 unknown
11:24 78.8 °F /  26.0 °C 69.8 °F /  21.0 °C 29.6in /  1003.5hPa SSW 9.3mph /  15km/h 13mph /  21km/h 73% 0in /  0.00mm 626.00 W/m2 unknown
11:29 80.6 °F /  27.0 °C 71.6 °F /  22.0 °C 29.6in /  1003.4hPa SSW 9.3mph /  15km/h 13mph /  21km/h 73% 0in /  0.00mm 798.00 W/m2 unknown
11:34 80.6 °F /  27.0 °C 71.6 °F /  22.0 °C 29.6in /  1003.2hPa SSW 8.1mph /  13km/h 11.8mph /  19km/h 71% 0in /  0.00mm 840.00 W/m2 unknown
11:39 82.4 °F /  28.0 °C 71.6 °F /  22.0 °C 29.6in /  1003.1hPa SW 8.1mph /  13km/h 11.8mph /  19km/h 71% 0in /  0.00mm 854.00 W/m2 unknown
11:44 82.4 °F /  28.0 °C 71.6 °F /  22.0 °C 29.6in /  1003.1hPa SW 8.1mph /  13km/h 11.8mph /  19km/h 69% 0in /  0.00mm 854.00 W/m2 unknown
11:49 82.4 °F /  28.0 °C 71.6 °F /  22.0 °C 29.6in /  1003.1hPa SW 7.5mph /  12km/h 11.8mph /  19km/h 69% 0in /  0.00mm 796.00 W/m2 unknown
11:54 82.4 °F /  28.0 °C 71.6 °F /  22.0 °C 29.6in /  1003.0hPa South 9.3mph /  15km/h 13mph /  21km/h 68% 0in /  0.00mm 765.00 W/m2 unknown
11:59 82.4 °F /  28.0 °C 71.6 °F /  22.0 °C 29.6in /  1002.9hPa SSW 8.7mph /  14km/h 13mph /  21km/h 68% 0in /  0.00mm 788.00 W/m2 unknown
12:04 82.4 °F /  28.0 °C 69.8 °F /  21.0 °C 29.6in /  1003.0hPa SSW 8.7mph /  14km/h 14.3mph /  23km/h 68% 0in /  0.00mm 789.00 W/m2 unknown
12:09 82.4 °F /  28.0 °C 69.8 °F /  21.0 °C 29.6in /  1002.9hPa SSW 9.3mph /  15km/h 14.3mph /  23km/h 67% 0in /  0.00mm 791.00 W/m2 unknown
12:14 82.4 °F /  28.0 °C 69.8 °F /  21.0 °C 29.6in /  1003.1hPa SSW 9.3mph /  15km/h 14.9mph /  24km/h 66% 0in /  0.00mm 796.00 W/m2 unknown
12:19 84.2 °F /  29.0 °C 69.8 °F /  21.0 °C 29.6in /  1003.0hPa SSW 9.3mph /  15km/h 14.9mph /  24km/h 65% 0in /  0.00mm 805.00 W/m2 unknown
12:24 84.2 °F /  29.0 °C 69.8 °F /  21.0 °C 29.6in /  1002.9hPa SW 8.1mph /  13km/h 14.9mph /  24km/h 64% 0in /  0.00mm 814.00 W/m2 unknown
12:29 84.2 °F /  29.0 °C 69.8 °F /  21.0 °C 29.6in /  1003.0hPa SSW 9.3mph /  15km/h 11.8mph /  19km/h 62% 0in /  0.00mm 812.00 W/m2 unknown
12:34 84.2 °F /  29.0 °C 69.8 °F /  21.0 °C 29.6in /  1003.0hPa SW 11.2mph /  18km/h 16.2mph /  26km/h 64% 0in /  0.00mm 819.00 W/m2 unknown
12:39 84.2 °F /  29.0 °C 69.8 °F /  21.0 °C 29.6in /  1003.1hPa SSW 10.6mph /  17km/h 18.6mph /  30km/h 62% 0in /  0.00mm 863.00 W/m2 unknown
12:44 84.2 °F /  29.0 °C 69.8 °F /  21.0 °C 29.6in /  1003.1hPa SW 14.3mph /  23km/h 18mph /  29km/h 62% 0in /  0.00mm 923.00 W/m2 unknown
12:49 84.2 °F /  29.0 °C 69.8 °F /  21.0 °C 29.6in /  1003.2hPa SW 14.3mph /  23km/h 19.9mph /  32km/h 62% 0in /  0.00mm 904.00 W/m2 unknown
12:54 84.2 °F /  29.0 °C 69.8 °F /  21.0 °C 29.6in /  1003.3hPa SSW 11.8mph /  19km/h 19.9mph /  32km/h 62% 0in /  0.00mm 381.00 W/m2 unknown
12:59 84.2 °F /  29.0 °C 69.8 °F /  21.0 °C 29.6in /  1003.3hPa SSW 11.8mph /  19km/h 18.6mph /  30km/h 62% 0in /  0.00mm 459.00 W/m2 unknown
13:04 84.2 °F /  29.0 °C 69.8 °F /  21.0 °C 29.6in /  1003.3hPa WSW 9.9mph /  16km/h 18mph /  29km/h 64% 0in /  0.00mm 559.00 W/m2 unknown
13:09 84.2 °F /  29.0 °C 69.8 °F /  21.0 °C 29.6in /  1003.3hPa WSW 9.9mph /  16km/h 14.3mph /  23km/h 64% 0in /  0.00mm 1063.00 W/m2 unknown
13:14 86 °F /  30.0 °C 71.6 °F /  22.0 °C 29.6in /  1003.2hPa WSW 9.3mph /  15km/h 14.3mph /  23km/h 64% 0in /  0.00mm 1011.00 W/m2 unknown
13:19 86 °F /  30.0 °C 69.8 °F /  21.0 °C 29.6in /  1003.2hPa SW 8.7mph /  14km/h 13mph /  21km/h 62% 0in /  0.00mm 965.00 W/m2 unknown
13:24 84.2 °F /  29.0 °C 69.8 °F /  21.0 °C 29.6in /  1003.2hPa SW 8.7mph /  14km/h 14.9mph /  24km/h 62% 0in /  0.00mm 285.00 W/m2 unknown
13:29 82.4 °F /  28.0 °C 68 °F /  20.0 °C 29.6in /  1003.1hPa SW 11.8mph /  19km/h 16.8mph /  27km/h 62% 0in /  0.00mm 181.00 W/m2 unknown
13:34 82.4 °F /  28.0 °C 68 °F /  20.0 °C 29.6in /  1003.0hPa SSW 10.6mph /  17km/h 17.4mph /  28km/h 60% 0in /  0.00mm 176.00 W/m2 unknown
13:39 82.4 °F /  28.0 °C 68 °F /  20.0 °C 29.6in /  1003.0hPa SW 8.7mph /  14km/h 16.8mph /  27km/h 62% 0in /  0.00mm 214.00 W/m2 unknown
13:44 82.4 °F /  28.0 °C 68 °F /  20.0 °C 29.6in /  1002.8hPa SW 11.8mph /  19km/h 16.2mph /  26km/h 62% 0in /  0.00mm 323.00 W/m2 unknown
13:49 82.4 °F /  28.0 °C 68 °F /  20.0 °C 29.6in /  1002.8hPa SW 12.4mph /  20km/h 17.4mph /  28km/h 61% 0in /  0.00mm 267.00 W/m2 unknown
13:54 84.2 °F /  29.0 °C 69.8 °F /  21.0 °C 29.6in /  1002.7hPa SW 13mph /  21km/h 19.3mph /  31km/h 63% 0in /  0.00mm 863.00 W/m2 unknown
13:59 84.2 °F /  29.0 °C 69.8 °F /  21.0 °C 29.6in /  1002.8hPa SSW 13mph /  21km/h 19.9mph /  32km/h 63% 0in /  0.00mm 909.00 W/m2 unknown
14:04 84.2 °F /  29.0 °C 69.8 °F /  21.0 °C 29.6in /  1002.9hPa SSW 12.4mph /  20km/h 19.9mph /  32km/h 64% 0in /  0.00mm 865.00 W/m2 unknown
14:09 84.2 °F /  29.0 °C 69.8 °F /  21.0 °C 29.6in /  1003.0hPa SW 11.8mph /  19km/h 18.6mph /  30km/h 63% 0in /  0.00mm 461.00 W/m2 unknown
14:14 84.2 °F /  29.0 °C 69.8 °F /  21.0 °C 29.6in /  1003.2hPa SW 12.4mph /  20km/h 19.9mph /  32km/h 62% 0in /  0.00mm 492.00 W/m2 unknown
14:19 84.2 °F /  29.0 °C 69.8 °F /  21.0 °C 29.6in /  1003.2hPa SW 9.9mph /  16km/h 19.9mph /  32km/h 62% 0in /  0.00mm 199.00 W/m2 unknown
14:24 82.4 °F /  28.0 °C 68 °F /  20.0 °C 29.6in /  1003.3hPa SW 8.7mph /  14km/h 13mph /  21km/h 63% 0in /  0.00mm 163.00 W/m2 unknown
14:29 82.4 °F /  28.0 °C 69.8 °F /  21.0 °C 29.6in /  1003.4hPa WSW 9.3mph /  15km/h 13mph /  21km/h 66% 0in /  0.00mm 158.00 W/m2 unknown
14:34 82.4 °F /  28.0 °C 69.8 °F /  21.0 °C 29.6in /  1003.4hPa WSW 6.8mph /  11km/h 13mph /  21km/h 69% 0in /  0.00mm 301.00 W/m2 unknown
14:39 82.4 °F /  28.0 °C 71.6 °F /  22.0 °C 29.6in /  1003.3hPa WSW 8.1mph /  13km/h 9.9mph /  16km/h 70% 0in /  0.00mm 693.00 W/m2 unknown
14:44 84.2 °F /  29.0 °C 71.6 °F /  22.0 °C 29.6in /  1003.1hPa WSW 11.2mph /  18km/h 16.2mph /  26km/h 68% 0in /  0.00mm 693.00 W/m2 unknown
14:49 84.2 °F /  29.0 °C 69.8 °F /  21.0 °C 29.6in /  1003.3hPa West 10.6mph /  17km/h 16.2mph /  26km/h 67% 0in /  0.00mm 450.00 W/m2 unknown
14:54 82.4 °F /  28.0 °C 69.8 °F /  21.0 °C 29.6in /  1003.5hPa West 11.8mph /  19km/h 16.2mph /  26km/h 70% 0in /  0.00mm 295.00 W/m2 unknown
14:59 80.6 °F /  27.0 °C 69.8 °F /  21.0 °C 29.6in /  1003.6hPa West 9.9mph /  16km/h 16.2mph /  26km/h 71% 0in /  0.00mm 925.00 W/m2 unknown
15:04 82.4 °F /  28.0 °C 69.8 °F /  21.0 °C 29.6in /  1003.6hPa WNW 8.1mph /  13km/h 14.3mph /  23km/h 69% 0in /  0.00mm 889.00 W/m2 unknown
15:09 82.4 °F /  28.0 °C 68 °F /  20.0 °C 29.6in /  1003.6hPa NW 6.8mph /  11km/h 11.2mph /  18km/h 64% 0in /  0.00mm 886.00 W/m2 unknown
15:14 82.4 °F /  28.0 °C 68 °F /  20.0 °C 29.6in /  1003.6hPa NNW 7.5mph /  12km/h 11.8mph /  19km/h 62% 0in /  0.00mm 802.00 W/m2 unknown
15:19 82.4 °F /  28.0 °C 68 °F /  20.0 °C 29.6in /  1003.6hPa NNW 6.8mph /  11km/h 11.8mph /  19km/h 63% 0in /  0.00mm 837.00 W/m2 unknown
15:24 82.4 °F /  28.0 °C 68 °F /  20.0 °C 29.6in /  1003.6hPa NNW 6.8mph /  11km/h 11.8mph /  19km/h 64% 0in /  0.00mm 837.00 W/m2 unknown
15:29 80.6 °F /  27.0 °C 68 °F /  20.0 °C 29.6in /  1003.5hPa NNW 8.1mph /  13km/h 11.8mph /  19km/h 66% 0in /  0.00mm 682.00 W/m2 unknown
15:34 80.6 °F /  27.0 °C 68 °F /  20.0 °C 29.6in /  1003.4hPa North 3.7mph /  6km/h 11.8mph /  19km/h 66% 0in /  0.00mm 640.00 W/m2 unknown
15:39 80.6 °F /  27.0 °C 68 °F /  20.0 °C 29.6in /  1003.5hPa WSW 3.1mph /  5km/h 6.2mph /  10km/h 66% 0in /  0.00mm 584.00 W/m2 unknown
15:44 82.4 °F /  28.0 °C 68 °F /  20.0 °C 29.6in /  1003.5hPa West 5mph /  8km/h 6.8mph /  11km/h 64% 0in /  0.00mm 533.00 W/m2 unknown
15:49 82.4 °F /  28.0 °C 68 °F /  20.0 °C 29.6in /  1003.5hPa WNW 5mph /  8km/h 6.8mph /  11km/h 64% 0in /  0.00mm 624.00 W/m2 unknown
15:54 82.4 °F /  28.0 °C 68 °F /  20.0 °C 29.6in /  1003.4hPa WNW 4.3mph /  7km/h 6.8mph /  11km/h 63% 0in /  0.00mm 478.00 W/m2 unknown
15:59 82.4 °F /  28.0 °C 68 °F /  20.0 °C 29.6in /  1003.3hPa WSW 3.7mph /  6km/h 5mph /  8km/h 62% 0in /  0.00mm 336.00 W/m2 unknown
16:04 84.2 °F /  29.0 °C 69.8 °F /  21.0 °C 29.6in /  1003.2hPa NW 4.3mph /  7km/h 6.8mph /  11km/h 64% 0in /  0.00mm 271.00 W/m2 unknown
16:09 84.2 °F /  29.0 °C 68 °F /  20.0 °C 29.6in /  1003.2hPa West 5.6mph /  9km/h 6.8mph /  11km/h 61% 0in /  0.00mm 364.00 W/m2 unknown
16:14 84.2 °F /  29.0 °C 68 °F /  20.0 °C 29.6in /  1003.1hPa SSW 5.6mph /  9km/h 8.1mph /  13km/h 60% 0in /  0.00mm 464.00 W/m2 unknown
16:19 86 °F /  30.0 °C 69.8 °F /  21.0 °C 29.6in /  1003.1hPa SSW 6.8mph /  11km/h 9.9mph /  16km/h 61% 0in /  0.00mm 673.00 W/m2 unknown
16:24 86 °F /  30.0 °C 69.8 °F /  21.0 °C 29.6in /  1003.1hPa SW 16.2mph /  26km/h 21.1mph /  34km/h 59% 0in /  0.00mm 645.00 W/m2 unknown
16:29 86 °F /  30.0 °C 68 °F /  20.0 °C 29.6in /  1003.1hPa SSW 11.8mph /  19km/h 21.1mph /  34km/h 55% 0in /  0.00mm 687.00 W/m2 unknown
16:34 86 °F /  30.0 °C 62.6 °F /  17.0 °C 29.6in /  1003.0hPa SW 14.9mph /  24km/h 19.9mph /  32km/h 46% 0in /  0.00mm 663.00 W/m2 unknown
16:39 86 °F /  30.0 °C 62.6 °F /  17.0 °C 29.6in /  1002.9hPa SW 14.9mph /  24km/h 19.9mph /  32km/h 45% 0in /  0.00mm 628.00 W/m2 unknown
16:44 86 °F /  30.0 °C 60.8 °F /  16.0 °C 29.6in /  1002.9hPa SSW 16.2mph /  26km/h 21.7mph /  35km/h 44% 0in /  0.00mm 608.00 W/m2 unknown
16:49 86 °F /  30.0 °C 60.8 °F /  16.0 °C 29.6in /  1003.0hPa SSW 16.8mph /  27km/h 24.2mph /  39km/h 44% 0in /  0.00mm 599.00 W/m2 unknown
16:54 86 °F /  30.0 °C 60.8 °F /  16.0 °C 29.6in /  1003.1hPa SW 16.2mph /  26km/h 24.2mph /  39km/h 43% 0in /  0.00mm 589.00 W/m2 unknown
16:59 86 °F /  30.0 °C 60.8 °F /  16.0 °C 29.6in /  1003.2hPa SSW 14.3mph /  23km/h 21.7mph /  35km/h 43% 0in /  0.00mm 575.00 W/m2 unknown
17:04 86 °F /  30.0 °C 60.8 °F /  16.0 °C 29.6in /  1003.3hPa SW 14.3mph /  23km/h 21.7mph /  35km/h 43% 0in /  0.00mm 563.00 W/m2 unknown
17:09 86 °F /  30.0 °C 60.8 °F /  16.0 °C 29.6in /  1003.5hPa SW 13mph /  21km/h 18.6mph /  30km/h 42% 0in /  0.00mm 554.00 W/m2 unknown
17:14 86 °F /  30.0 °C 60.8 °F /  16.0 °C 29.6in /  1003.7hPa SW 14.9mph /  24km/h 21.1mph /  34km/h 42% 0in /  0.00mm 522.00 W/m2 unknown
17:19 86 °F /  30.0 °C 60.8 °F /  16.0 °C 29.6in /  1003.8hPa WSW 14.9mph /  24km/h 21.1mph /  34km/h 42% 0in /  0.00mm 522.00 W/m2 unknown
17:24 86 °F /  30.0 °C 59 °F /  15.0 °C 29.7in /  1004.0hPa WSW 13mph /  21km/h 18.6mph /  30km/h 44% 0in /  0.00mm 123.00 W/m2 unknown
17:29 84.2 °F /  29.0 °C 64.4 °F /  18.0 °C 29.7in /  1004.3hPa West 9.9mph /  16km/h 16.2mph /  26km/h 55% 0in /  0.00mm 90.00 W/m2 unknown
17:34 82.4 °F /  28.0 °C 66.2 °F /  19.0 °C 29.7in /  1004.2hPa North 5mph /  8km/h 13mph /  21km/h 60% 0in /  0.00mm 90.00 W/m2 unknown
17:39 80.6 °F /  27.0 °C 66.2 °F /  19.0 °C 29.7in /  1004.2hPa ENE 5mph /  8km/h 6.8mph /  11km/h 62% 0in /  0.00mm 102.00 W/m2 unknown
17:44 80.6 °F /  27.0 °C 68 °F /  20.0 °C 29.7in /  1004.3hPa ENE 6.2mph /  10km/h 8.1mph /  13km/h 66% 0in /  0.00mm 125.00 W/m2 unknown
17:49 78.8 °F /  26.0 °C 68 °F /  20.0 °C 29.7in /  1004.3hPa NE 6.2mph /  10km/h 8.1mph /  13km/h 67% 0in /  0.00mm 114.00 W/m2 unknown
17:54 78.8 °F /  26.0 °C 66.2 °F /  19.0 °C 29.7in /  1004.3hPa NNE 6.2mph /  10km/h 8.1mph /  13km/h 66% 0in /  0.00mm 111.00 W/m2 unknown
17:59 78.8 °F /  26.0 °C 66.2 °F /  19.0 °C 29.7in /  1004.3hPa SSE 5mph /  8km/h 8.1mph /  13km/h 66% 0in /  0.00mm 111.00 W/m2 unknown
18:04 78.8 °F /  26.0 °C 66.2 °F /  19.0 °C 29.7in /  1004.3hPa ENE 5mph /  8km/h 8.1mph /  13km/h 67% 0in /  0.00mm 91.00 W/m2 unknown
18:09 78.8 °F /  26.0 °C 66.2 °F /  19.0 °C 29.7in /  1004.5hPa ENE 3.1mph /  5km/h 6.2mph /  10km/h 67% 0in /  0.00mm 84.00 W/m2 unknown
18:14 78.8 °F /  26.0 °C 68 °F /  20.0 °C 29.7in /  1004.9hPa North 7.5mph /  12km/h 13mph /  21km/h 69% 0in /  0.00mm 221.00 W/m2 unknown
18:19 78.8 °F /  26.0 °C 68 °F /  20.0 °C 29.7in /  1005.3hPa NNW 11.8mph /  19km/h 17.4mph /  28km/h 68% 0in /  0.00mm 123.00 W/m2 unknown
18:24 78.8 °F /  26.0 °C 66.2 °F /  19.0 °C 29.7in /  1005.5hPa NNW 9.9mph /  16km/h 17.4mph /  28km/h 67% 0in /  0.00mm 121.00 W/m2 unknown
18:29 77 °F /  25.0 °C 66.2 °F /  19.0 °C 29.7in /  1006.2hPa NNW 11.8mph /  19km/h 17.4mph /  28km/h 69% 0in /  0.00mm 102.00 W/m2 unknown
18:34 77 °F /  25.0 °C 64.4 °F /  18.0 °C 29.7in /  1006.4hPa NW 12.4mph /  20km/h 19.9mph /  32km/h 71% 0in /  0.00mm 174.00 W/m2 unknown
18:39 75.2 °F /  24.0 °C 66.2 °F /  19.0 °C 29.7in /  1006.5hPa NW 17.4mph /  28km/h 25.5mph /  41km/h 72% 0in /  0.00mm 193.00 W/m2 unknown
18:44 75.2 °F /  24.0 °C 64.4 °F /  18.0 °C 29.7in /  1006.6hPa NW 16.2mph /  26km/h 25.5mph /  41km/h 73% 0in /  0.00mm 156.00 W/m2 unknown
18:49 73.4 °F /  23.0 °C 64.4 °F /  18.0 °C 29.7in /  1006.6hPa NNW 13mph /  21km/h 19.9mph /  32km/h 75% 0in /  0.00mm 95.00 W/m2 unknown
18:54 71.6 °F /  22.0 °C 64.4 °F /  18.0 °C 29.7in /  1006.6hPa NNW 8.7mph /  14km/h 14.3mph /  23km/h 76% 0in /  0.00mm 72.00 W/m2 unknown
18:59 71.6 °F /  22.0 °C 64.4 °F /  18.0 °C 29.7in /  1006.6hPa NW 9.9mph /  16km/h 14.3mph /  23km/h 78% 0in /  0.00mm 35.00 W/m2 unknown
19:04 71.6 °F /  22.0 °C 64.4 °F /  18.0 °C 29.7in /  1006.5hPa North 6.8mph /  11km/h 14.3mph /  23km/h 79% 0in /  0.00mm 35.00 W/m2 unknown
19:09 71.6 °F /  22.0 °C 64.4 °F /  18.0 °C 29.7in /  1006.3hPa NW 6.8mph /  11km/h 9.9mph /  16km/h 78% 0in /  0.00mm 33.00 W/m2 unknown
19:14 71.6 °F /  22.0 °C 66.2 °F /  19.0 °C 29.7in /  1006.3hPa North 6.2mph /  10km/h 8.7mph /  14km/h 80% 0in /  0.00mm 33.00 W/m2 unknown
19:19 71.6 °F /  22.0 °C 66.2 °F /  19.0 °C 29.7in /  1006.2hPa North 6.2mph /  10km/h 8.1mph /  13km/h 81% 0in /  0.00mm 33.00 W/m2 unknown
19:24 71.6 °F /  22.0 °C 64.4 °F /  18.0 °C 29.7in /  1005.8hPa NNE 7.5mph /  12km/h 10.6mph /  17km/h 81% 0in /  0.00mm 93.00 W/m2 unknown
19:29 71.6 °F /  22.0 °C 64.4 °F /  18.0 °C 29.7in /  1005.9hPa NNE 7.5mph /  12km/h 10.6mph /  17km/h 82% 0in /  0.00mm 111.00 W/m2 unknown
19:34 69.8 °F /  21.0 °C 64.4 °F /  18.0 °C 29.7in /  1005.9hPa NE 6.2mph /  10km/h 8.7mph /  14km/h 82% 0in /  0.00mm 90.00 W/m2 unknown
19:39 71.6 °F /  22.0 °C 64.4 °F /  18.0 °C 29.7in /  1005.9hPa NE 5mph /  8km/h 8.1mph /  13km/h 82% 0in /  0.00mm 88.00 W/m2 unknown
19:44 71.6 °F /  22.0 °C 64.4 °F /  18.0 °C 29.7in /  1005.7hPa East 5.6mph /  9km/h 8.1mph /  13km/h 81% 0in /  0.00mm 39.00 W/m2 unknown
19:49 69.8 °F /  21.0 °C 64.4 °F /  18.0 °C 29.7in /  1005.8hPa East 6.2mph /  10km/h 6.8mph /  11km/h 82% 0in /  0.00mm 21.00 W/m2 unknown
19:54 69.8 °F /  21.0 °C 64.4 °F /  18.0 °C 29.7in /  1005.9hPa ESE 3.1mph /  5km/h 5mph /  8km/h 82% 0in /  0.00mm 18.00 W/m2 unknown
19:59 69.8 °F /  21.0 °C 64.4 °F /  18.0 °C 29.7in /  1006.0hPa SE 2.5mph /  4km/h 4.3mph /  7km/h 83% 0in /  0.00mm 12.00 W/m2 unknown
20:04 69.8 °F /  21.0 °C 64.4 °F /  18.0 °C 29.7in /  1006.1hPa SSE 1.9mph /  3km/h 3.7mph /  6km/h 83% 0in /  0.00mm 12.00 W/m2 unknown
20:09 69.8 °F /  21.0 °C 64.4 °F /  18.0 °C 29.7in /  1006.3hPa South 1.9mph /  3km/h 3.7mph /  6km/h 83% 0in /  0.00mm 16.00 W/m2 unknown
20:14 69.8 °F /  21.0 °C 64.4 °F /  18.0 °C 29.7in /  1006.3hPa SSW 2.5mph /  4km/h 3.7mph /  6km/h 83% 0in /  0.00mm 23.00 W/m2 unknown
20:19 69.8 °F /  21.0 °C 64.4 °F /  18.0 °C 29.7in /  1006.3hPa WSW 1.9mph /  3km/h 3.7mph /  6km/h 82% 0in /  0.00mm 39.00 W/m2 unknown
20:24 69.8 °F /  21.0 °C 64.4 °F /  18.0 °C 29.7in /  1006.4hPa WSW 3.1mph /  5km/h 3.7mph /  6km/h 82% 0in /  0.00mm 40.00 W/m2 unknown
20:29 69.8 °F /  21.0 °C 66.2 °F /  19.0 °C 29.7in /  1006.4hPa WSW 3.1mph /  5km/h 3.7mph /  6km/h 83% 0in /  0.00mm 37.00 W/m2 unknown
20:34 69.8 °F /  21.0 °C 64.4 °F /  18.0 °C 29.7in /  1006.4hPa West 1.9mph /  3km/h 3.1mph /  5km/h 83% 0in /  0.00mm 28.00 W/m2 unknown
20:39 69.8 °F /  21.0 °C 66.2 °F /  19.0 °C 29.7in /  1006.9hPa WNW 4.3mph /  7km/h 6.2mph /  10km/h 84% 0in /  0.00mm 30.00 W/m2 unknown
20:44 69.8 °F /  21.0 °C 66.2 °F /  19.0 °C 29.7in /  1007.0hPa NNW 3.7mph /  6km/h 6.2mph /  10km/h 84% 0in /  0.00mm 19.00 W/m2 unknown
20:49 69.8 °F /  21.0 °C 66.2 °F /  19.0 °C 29.7in /  1007.1hPa West 5mph /  8km/h 6.2mph /  10km/h 84% 0in /  0.00mm 5.00 W/m2 unknown
20:54 69.8 °F /  21.0 °C 66.2 °F /  19.0 °C 29.7in /  1007.1hPa West 3.1mph /  5km/h 6.2mph /  10km/h 85% 0in /  0.00mm 0.00 W/m2 unknown
20:59 69.8 °F /  21.0 °C 66.2 °F /  19.0 °C 29.7in /  1007.2hPa WNW 4.3mph /  7km/h 5mph /  8km/h 86% 0in /  0.00mm 0.00 W/m2 unknown
21:04 69.8 °F /  21.0 °C 66.2 °F /  19.0 °C 29.7in /  1007.3hPa West 3.1mph /  5km/h 5mph /  8km/h 87% 0in /  0.00mm 0.00 W/m2 unknown
21:09 69.8 °F /  21.0 °C 66.2 °F /  19.0 °C 29.8in /  1007.4hPa WNW 2.5mph /  4km/h 3.7mph /  6km/h 87% 0in /  0.00mm 0.00 W/m2 unknown
21:14 69.8 °F /  21.0 °C 66.2 °F /  19.0 °C 29.8in /  1007.6hPa NNW 3.7mph /  6km/h 5.6mph /  9km/h 87% 0in /  0.00mm 0.00 W/m2 unknown
21:19 69.8 °F /  21.0 °C 66.2 °F /  19.0 °C 29.8in /  1007.6hPa NW 3.1mph /  5km/h 3.7mph /  6km/h 88% 0in /  0.00mm 0.00 W/m2 unknown
21:24 69.8 °F /  21.0 °C 66.2 °F /  19.0 °C 29.8in /  1007.7hPa NW 1.9mph /  3km/h 3.7mph /  6km/h 87% 0in /  0.00mm 0.00 W/m2 unknown
21:29 69.8 °F /  21.0 °C 66.2 °F /  19.0 °C 29.8in /  1007.8hPa NW 1.9mph /  3km/h 3.7mph /  6km/h 87% 0in /  0.00mm 0.00 W/m2 unknown
21:34 69.8 °F /  21.0 °C 66.2 °F /  19.0 °C 29.8in /  1007.9hPa NNW 1.9mph /  3km/h 3.7mph /  6km/h 87% 0in /  0.00mm 0.00 W/m2 unknown
21:39 69.8 °F /  21.0 °C 66.2 °F /  19.0 °C 29.8in /  1007.9hPa NNW 2.5mph /  4km/h 3.7mph /  6km/h 87% 0in /  0.00mm 0.00 W/m2 unknown
21:44 69.8 °F /  21.0 °C 66.2 °F /  19.0 °C 29.8in /  1008.0hPa North 2.5mph /  4km/h 3.7mph /  6km/h 87% 0in /  0.00mm 0.00 W/m2 unknown
21:49 69.8 °F /  21.0 °C 66.2 °F /  19.0 °C 29.8in /  1008.1hPa North 2.5mph /  4km/h 3.7mph /  6km/h 87% 0in /  0.00mm 0.00 W/m2 unknown
21:54 69.8 °F /  21.0 °C 66.2 °F /  19.0 °C 29.8in /  1008.2hPa NE 1.2mph /  2km/h 2.5mph /  4km/h 87% 0in /  0.00mm 0.00 W/m2 unknown
21:59 69.8 °F /  21.0 °C 66.2 °F /  19.0 °C 29.8in /  1008.2hPa NE 1.9mph /  3km/h 3.7mph /  6km/h 87% 0in /  0.00mm 0.00 W/m2 unknown
22:04 69.8 °F /  21.0 °C 66.2 °F /  19.0 °C 29.8in /  1008.2hPa SE 1.9mph /  3km/h 3.1mph /  5km/h 88% 0in /  0.00mm 0.00 W/m2 unknown
22:09 69.8 °F /  21.0 °C 64.4 °F /  18.0 °C 29.8in /  1008.2hPa SE 1.9mph /  3km/h 2.5mph /  4km/h 88% 0in /  0.00mm 0.00 W/m2 unknown
22:14 69.8 °F /  21.0 °C 64.4 °F /  18.0 °C 29.8in /  1008.3hPa SE 1.2mph /  2km/h 1.9mph /  3km/h 88% 0in /  0.00mm 0.00 W/m2 unknown
22:19 69.8 °F /  21.0 °C 64.4 °F /  18.0 °C 29.8in /  1008.3hPa Calm   1.2mph /  2km/h 88% 0in /  0.00mm 0.00 W/m2 unknown
22:24 69.8 °F /  21.0 °C 64.4 °F /  18.0 °C 29.8in /  1008.3hPa Calm   1.2mph /  2km/h 88% 0in /  0.00mm 0.00 W/m2 unknown
22:29 69.8 °F /  21.0 °C 64.4 °F /  18.0 °C 29.8in /  1008.3hPa Calm     88% 0in /  0.00mm 0.00 W/m2 unknown
22:34 68 °F /  20.0 °C 64.4 °F /  18.0 °C 29.8in /  1008.4hPa Calm     88% 0in /  0.00mm 0.00 W/m2 unknown
22:39 68 °F /  20.0 °C 64.4 °F /  18.0 °C 29.8in /  1008.4hPa Calm     88% 0in /  0.00mm 0.00 W/m2 unknown
22:44 68 °F /  20.0 °C 64.4 °F /  18.0 °C 29.8in /  1008.4hPa Calm     88% 0in /  0.00mm 0.00 W/m2 unknown
22:49 68 °F /  20.0 °C 64.4 °F /  18.0 °C 29.8in /  1008.4hPa NE 3.1mph /  5km/h 5mph /  8km/h 88% 0in /  0.00mm 0.00 W/m2 unknown
22:54 68 °F /  20.0 °C 64.4 °F /  18.0 °C 29.8in /  1008.4hPa NE 3.7mph /  6km/h 5mph /  8km/h 88% 0in /  0.00mm 0.00 W/m2 unknown
22:59 68 °F /  20.0 °C 64.4 °F /  18.0 °C 29.8in /  1008.4hPa ESE 3.1mph /  5km/h 5mph /  8km/h 89% 0in /  0.00mm 0.00 W/m2 unknown
23:04 68 °F /  20.0 °C 64.4 °F /  18.0 °C 29.8in /  1008.4hPa East 2.5mph /  4km/h 3.7mph /  6km/h 89% 0in /  0.00mm 0.00 W/m2 unknown
23:09 68 °F /  20.0 °C 64.4 °F /  18.0 °C 29.8in /  1008.4hPa ENE 2.5mph /  4km/h 3.7mph /  6km/h 89% 0in /  0.00mm 0.00 W/m2 unknown
23:14 68 °F /  20.0 °C 64.4 °F /  18.0 °C 29.8in /  1008.4hPa ESE 3.1mph /  5km/h 5mph /  8km/h 89% 0in /  0.00mm 0.00 W/m2 unknown
23:19 68 °F /  20.0 °C 64.4 °F /  18.0 °C 29.8in /  1008.4hPa ESE 3.1mph /  5km/h 5mph /  8km/h 90% 0in /  0.00mm 0.00 W/m2 unknown
23:24 68 °F /  20.0 °C 64.4 °F /  18.0 °C 29.8in /  1008.4hPa East 2.5mph /  4km/h 3.7mph /  6km/h 90% 0in /  0.00mm 0.00 W/m2 unknown
23:29 68 °F /  20.0 °C 64.4 °F /  18.0 °C 29.8in /  1008.4hPa ENE 1.9mph /  3km/h 3.7mph /  6km/h 90% 0in /  0.00mm 0.00 W/m2 unknown
23:34 68 °F /  20.0 °C 64.4 °F /  18.0 °C 29.8in /  1008.3hPa ENE 2.5mph /  4km/h 3.7mph /  6km/h 90% 0in /  0.00mm 0.00 W/m2 unknown
23:39 68 °F /  20.0 °C 64.4 °F /  18.0 °C 29.8in /  1008.3hPa NE 1.9mph /  3km/h 3.7mph /  6km/h 90% 0in /  0.00mm 0.00 W/m2 unknown
23:44 68 °F /  20.0 °C 64.4 °F /  18.0 °C 29.8in /  1008.3hPa NE 1.9mph /  3km/h 3.7mph /  6km/h 90% 0in /  0.00mm 0.00 W/m2 unknown
23:49 68 °F /  20.0 °C 64.4 °F /  18.0 °C 29.8in /  1008.2hPa NE 1.2mph /  2km/h 3.7mph /  6km/h 91% 0in /  0.00mm 0.00 W/m2 unknown
23:54 68 °F /  20.0 °C 64.4 °F /  18.0 °C 29.8in /  1008.2hPa NE 1.2mph /  2km/h 1.2mph /  2km/h 91% 0in /  0.00mm 0.00 W/m2 unknown
23:59 68 °F /  20.0 °C 64.4 °F /  18.0 °C 29.8in /  1008.2hPa NNE 1.9mph /  3km/h 2.5mph /  4km/h 91% 0in /  0.00mm 0.00 W/m2 unknown
Stazione Meteorologica MeteoMincio Rivalta s/M (MN)
Con i complimenti di Weather Underground - 4 mb



GLOSSARIO METEOROLOGICO
Indice di calore (Heat Index)
Utilizza la temperatura e l'umidità relativa per determinare la sensazione di calore dell'aria. Quando l'umidità è bassa, la temperatura apparente sarà minore della temperatura dell'aria, dal momento che la traspirazione evapora rapidamente e raffredda il corpo. Quando l'umidità è alta, la temperatura apparente sembrerà più alta dell'attuale temperatura dell'aria, perchè la traspirazione del corpo evapora più lentamente.
Share

Non seguire questo link o sarai bannato dal sito!